createdAt,value
2023-04-08T00:00:06.544Z,9.64
2023-04-08T00:02:36.775Z,9.62
2023-04-08T00:05:03.679Z,9.60
2023-04-08T00:07:30.148Z,9.55
2023-04-08T00:09:56.761Z,9.52
2023-04-08T00:12:23.198Z,9.52
2023-04-08T00:14:49.640Z,9.49
2023-04-08T00:17:16.673Z,9.48
2023-04-08T00:19:43.521Z,9.45
2023-04-08T00:22:09.969Z,9.41
2023-04-08T00:24:36.727Z,9.37
2023-04-08T00:27:03.813Z,9.34
2023-04-08T00:29:30.688Z,9.32
2023-04-08T00:31:57.197Z,9.28
2023-04-08T00:34:24.366Z,9.25
2023-04-08T00:36:51.052Z,9.21
2023-04-08T00:39:17.646Z,9.19
2023-04-08T00:41:44.074Z,9.18
2023-04-08T00:44:10.703Z,9.15
2023-04-08T00:46:39.678Z,9.12
2023-04-08T00:49:07.386Z,9.10
2023-04-08T00:51:36.487Z,9.09
2023-04-08T00:54:06.468Z,9.08
2023-04-08T00:56:34.522Z,9.03
2023-04-08T00:59:01.154Z,9.02
2023-04-08T01:01:58.688Z,8.99
2023-04-08T01:04:43.727Z,8.95
2023-04-08T01:07:17.891Z,8.89
2023-04-08T01:09:52.955Z,8.87
2023-04-08T01:12:27.316Z,8.88
2023-04-08T01:15:01.707Z,8.82
2023-04-08T01:17:30.104Z,8.80
2023-04-08T01:19:59.688Z,8.79
2023-04-08T01:22:43.964Z,8.77
2023-04-08T01:25:17.227Z,8.72
2023-04-08T01:27:44.137Z,8.69
2023-04-08T01:30:11.843Z,8.67
2023-04-08T01:32:40.135Z,8.64
2023-04-08T01:35:07.826Z,8.63
2023-04-08T01:37:35.786Z,8.63
2023-04-08T01:40:03.254Z,8.63
2023-04-08T01:42:30.077Z,8.64
2023-04-08T01:44:59.353Z,8.68
2023-04-08T01:47:26.978Z,8.62
2023-04-08T01:49:55.125Z,8.60
2023-04-08T01:52:23.268Z,8.63
2023-04-08T01:54:49.780Z,8.64
2023-04-08T01:57:30.655Z,8.63
2023-04-08T02:00:00.954Z,8.63
2023-04-08T02:02:28.672Z,8.62
2023-04-08T02:04:55.533Z,8.61
2023-04-08T02:07:22.338Z,8.58
2023-04-08T02:09:48.789Z,8.56
2023-04-08T02:12:15.309Z,8.52
2023-04-08T02:14:41.872Z,8.48
2023-04-08T02:17:11.618Z,8.46
2023-04-08T02:20:03.476Z,8.44
2023-04-08T02:22:48.053Z,8.41
2023-04-08T02:25:16.418Z,8.37
2023-04-08T02:27:44.679Z,8.34
2023-04-08T02:30:12.631Z,8.35
2023-04-08T02:32:39.822Z,8.36
2023-04-08T02:35:07.939Z,8.36
2023-04-08T02:37:34.448Z,8.36
2023-04-08T02:40:00.925Z,8.34
2023-04-08T02:42:27.550Z,8.31
2023-04-08T02:44:54.042Z,8.30
2023-04-08T02:47:20.781Z,8.25
2023-04-08T02:49:47.446Z,8.24
2023-04-08T02:52:13.929Z,8.22
2023-04-08T02:54:40.630Z,8.20
2023-04-08T02:57:07.127Z,8.19
2023-04-08T02:59:33.595Z,8.21
2023-04-08T03:02:00.489Z,8.21
2023-04-08T03:04:27.008Z,8.22
2023-04-08T03:06:53.447Z,8.21
2023-04-08T03:09:19.884Z,8.20
2023-04-08T03:11:52.431Z,8.16
2023-04-08T03:14:18.863Z,8.16
2023-04-08T03:16:45.344Z,8.15
2023-04-08T03:19:11.872Z,8.15
2023-04-08T03:21:38.283Z,8.14
2023-04-08T03:24:04.929Z,8.14
2023-04-08T03:26:31.376Z,8.10
2023-04-08T03:28:57.906Z,8.09
2023-04-08T03:31:24.500Z,8.07
2023-04-08T03:33:51.101Z,8.03
2023-04-08T03:36:17.518Z,7.95
2023-04-08T03:38:44.659Z,7.92
2023-04-08T03:41:11.155Z,7.88
2023-04-08T03:43:38.088Z,7.85
2023-04-08T03:46:04.623Z,7.85
2023-04-08T03:48:31.835Z,7.82
2023-04-08T03:51:01.221Z,7.80
2023-04-08T03:53:29.183Z,7.79
2023-04-08T03:55:56.772Z,7.74
2023-04-08T03:58:23.458Z,7.64
2023-04-08T04:00:50.541Z,7.61
2023-04-08T04:03:17.260Z,7.52
2023-04-08T04:05:43.822Z,7.44
2023-04-08T04:08:10.370Z,7.34
2023-04-08T04:10:37.794Z,7.34
2023-04-08T04:13:06.570Z,7.37
2023-04-08T04:15:33.225Z,7.43
2023-04-08T04:17:59.794Z,7.38
2023-04-08T04:20:26.502Z,7.36
2023-04-08T04:22:52.972Z,7.33
2023-04-08T04:25:19.534Z,7.31
2023-04-08T04:27:45.945Z,7.28
2023-04-08T04:30:15.408Z,7.26
2023-04-08T04:32:44.984Z,7.21
2023-04-08T04:35:12.970Z,7.15
2023-04-08T04:37:39.476Z,7.10
2023-04-08T04:40:06.430Z,7.05
2023-04-08T04:42:33.202Z,7.07
2023-04-08T04:44:59.754Z,7.11
2023-04-08T04:47:26.226Z,7.14
2023-04-08T04:49:52.765Z,7.14
2023-04-08T04:52:19.237Z,7.15
2023-04-08T04:54:45.946Z,7.14
2023-04-08T04:57:12.448Z,7.14
2023-04-08T04:59:38.902Z,7.12
2023-04-08T05:02:05.577Z,7.10
2023-04-08T05:04:32.135Z,7.07
2023-04-08T05:07:01.655Z,7.07
2023-04-08T05:09:29.330Z,7.04
2023-04-08T05:11:57.001Z,7.03
2023-04-08T05:14:23.464Z,7.02
2023-04-08T05:16:49.875Z,7.01
2023-04-08T05:19:16.391Z,6.98
2023-04-08T05:21:42.822Z,6.98
2023-04-08T05:24:09.390Z,6.96
2023-04-08T05:26:37.768Z,6.94
2023-04-08T05:29:04.309Z,6.96
2023-04-08T05:31:31.038Z,6.97
2023-04-08T05:33:57.617Z,6.96
2023-04-08T05:36:24.055Z,6.95
2023-04-08T05:38:50.837Z,6.96
2023-04-08T05:41:17.383Z,6.99
2023-04-08T05:43:43.819Z,7.01
2023-04-08T05:46:11.178Z,7.05
2023-04-08T05:48:37.714Z,7.09
2023-04-08T05:51:04.324Z,7.15
2023-04-08T05:53:30.758Z,7.23
2023-04-08T05:55:57.228Z,7.23
2023-04-08T05:58:23.642Z,7.29
2023-04-08T06:00:50.237Z,7.34
2023-04-08T06:03:19.748Z,7.47
2023-04-08T06:05:47.070Z,7.71
2023-04-08T06:08:13.727Z,7.98
2023-04-08T06:10:40.335Z,8.21
2023-04-08T06:13:06.920Z,8.43
2023-04-08T06:15:33.279Z,8.37
2023-04-08T06:17:59.714Z,8.38
2023-04-08T06:20:26.380Z,8.42
2023-04-08T06:22:52.868Z,8.36
2023-04-08T06:25:19.325Z,8.35
2023-04-08T06:27:45.924Z,8.33
2023-04-08T06:30:12.608Z,8.34
2023-04-08T06:32:39.085Z,8.33
2023-04-08T06:35:07.767Z,8.31
2023-04-08T06:37:38.327Z,8.29
2023-04-08T06:40:06.308Z,8.32
2023-04-08T06:42:32.817Z,8.31
2023-04-08T06:45:08.849Z,8.30
2023-04-08T06:47:35.261Z,8.25
2023-04-08T06:50:01.778Z,8.22
2023-04-08T06:52:28.250Z,8.25
2023-04-08T06:54:54.826Z,8.35
2023-04-08T06:57:21.258Z,8.43
2023-04-08T06:59:47.723Z,8.52
2023-04-08T07:02:14.251Z,8.53
2023-04-08T07:04:40.871Z,8.65
2023-04-08T07:07:07.352Z,8.78
2023-04-08T07:09:33.811Z,8.75
2023-04-08T07:12:00.212Z,8.79
2023-04-08T07:14:26.691Z,8.82
2023-04-08T07:16:53.235Z,8.94
2023-04-08T07:19:19.726Z,8.94
2023-04-08T07:21:46.188Z,9.00
2023-04-08T07:24:12.619Z,9.00
2023-04-08T07:26:39.175Z,9.06
2023-04-08T07:29:05.599Z,8.98
2023-04-08T07:31:32.150Z,8.95
2023-04-08T07:33:59.182Z,8.82
2023-04-08T07:36:25.673Z,8.72
2023-04-08T07:38:52.312Z,8.75
2023-04-08T07:41:18.966Z,8.83
2023-04-08T07:43:45.941Z,8.78
2023-04-08T07:46:12.471Z,8.90
2023-04-08T07:48:38.890Z,8.98
2023-04-08T07:51:11.144Z,9.00
2023-04-08T07:53:38.900Z,9.00
2023-04-08T07:56:11.784Z,8.94
2023-04-08T07:58:38.632Z,8.98
2023-04-08T08:01:05.405Z,9.00
2023-04-08T08:03:34.073Z,9.05
2023-04-08T08:06:01.430Z,9.10
2023-04-08T08:08:27.837Z,9.22
2023-04-08T08:10:54.270Z,9.37
2023-04-08T08:13:22.144Z,9.55
2023-04-08T08:15:52.587Z,9.70
2023-04-08T08:18:19.363Z,9.76
2023-04-08T08:20:46.016Z,9.83
2023-04-08T08:23:12.405Z,9.87
2023-04-08T08:25:38.812Z,9.76
2023-04-08T08:28:05.193Z,9.58
2023-04-08T08:33:02.110Z,9.39
2023-04-08T08:35:28.749Z,9.19
2023-04-08T08:37:55.186Z,9.25
2023-04-08T08:40:21.854Z,9.37
2023-04-08T08:42:52.612Z,9.65
2023-04-08T08:45:22.199Z,9.70
2023-04-08T08:47:51.030Z,9.76
2023-04-08T08:50:18.651Z,9.81
2023-04-08T08:52:52.179Z,9.90
2023-04-08T08:55:41.384Z,9.98
2023-04-08T08:58:08.507Z,9.93
2023-04-08T09:00:36.450Z,10.02
2023-04-08T09:03:23.608Z,10.24
2023-04-08T09:05:52.708Z,10.38
2023-04-08T09:08:26.265Z,10.48
2023-04-08T09:10:53.987Z,10.49
2023-04-08T09:13:22.519Z,10.67
2023-04-08T09:16:05.130Z,10.86
2023-04-08T09:18:33.240Z,11.01
2023-04-08T09:21:01.624Z,11.11
2023-04-08T09:23:45.904Z,11.13
2023-04-08T09:26:16.224Z,10.92
2023-04-08T09:28:44.208Z,10.88
2023-04-08T09:31:22.892Z,10.89
2023-04-08T09:34:09.498Z,10.94
2023-04-08T09:36:35.920Z,11.00
2023-04-08T09:39:02.397Z,10.96
2023-04-08T09:41:29.309Z,11.04
2023-04-08T09:43:56.791Z,11.14
2023-04-08T09:46:50.943Z,11.20
2023-04-08T09:49:38.198Z,11.21
2023-04-08T09:52:07.361Z,11.17
2023-04-08T09:54:54.580Z,11.15
2023-04-08T09:57:39.700Z,11.22
2023-04-08T10:00:17.263Z,11.38
2023-04-08T10:03:03.065Z,11.63
2023-04-08T10:05:31.106Z,11.65
2023-04-08T10:08:00.456Z,11.55
2023-04-08T10:10:27.433Z,11.36
2023-04-08T10:12:54.165Z,11.19
2023-04-08T10:15:24.908Z,11.06
2023-04-08T10:17:52.704Z,10.96
2023-04-08T10:20:34.513Z,11.17
2023-04-08T10:23:01.425Z,11.47
2023-04-08T10:25:48.044Z,11.71
2023-04-08T10:28:15.110Z,11.85
2023-04-08T10:30:43.617Z,11.91
2023-04-08T10:33:24.606Z,11.93
2023-04-08T10:35:59.275Z,12.04
2023-04-08T10:38:25.956Z,12.01
2023-04-08T10:40:54.512Z,12.00
2023-04-08T10:43:20.998Z,12.11
2023-04-08T10:45:51.160Z,12.23
2023-04-08T10:48:20.552Z,12.40
2023-04-08T10:50:54.871Z,12.33
2023-04-08T10:53:31.051Z,12.00
2023-04-08T10:56:06.113Z,11.79
2023-04-08T10:58:33.255Z,11.66
2023-04-08T11:01:08.963Z,11.70
2023-04-08T11:03:37.102Z,11.77
2023-04-08T11:06:04.183Z,11.98
2023-04-08T11:08:32.740Z,12.10
2023-04-08T11:11:04.117Z,12.28
2023-04-08T11:13:31.756Z,12.33
2023-04-08T11:15:59.868Z,12.46
2023-04-08T11:18:27.225Z,12.59
2023-04-08T11:20:54.134Z,12.59
2023-04-08T11:23:22.795Z,12.61
2023-04-08T11:25:50.666Z,12.78
2023-04-08T11:28:18.160Z,12.96
2023-04-08T11:30:44.721Z,12.96
2023-04-08T11:33:13.162Z,12.72
2023-04-08T11:35:41.273Z,12.68
2023-04-08T11:38:09.070Z,12.71
2023-04-08T11:40:35.746Z,12.72
2023-04-08T11:43:15.248Z,12.61
2023-04-08T11:45:42.456Z,12.50
2023-04-08T11:48:14.161Z,12.31
2023-04-08T11:50:41.934Z,12.40
2023-04-08T11:53:21.905Z,12.46
2023-04-08T11:55:49.074Z,12.49
2023-04-08T11:58:15.652Z,12.57
2023-04-08T12:00:42.666Z,12.66
2023-04-08T12:03:09.776Z,12.76
2023-04-08T12:05:36.379Z,12.76
2023-04-08T12:08:03.503Z,12.94
2023-04-08T12:10:30.422Z,12.76
2023-04-08T12:12:56.908Z,12.58
2023-04-08T12:15:23.491Z,12.42
2023-04-08T12:17:49.993Z,12.43
2023-04-08T12:20:17.336Z,12.39
2023-04-08T12:22:43.992Z,12.43
2023-04-08T12:25:10.600Z,12.41
2023-04-08T12:27:37.035Z,12.58
2023-04-08T12:30:04.124Z,12.78
2023-04-08T12:32:30.926Z,12.94
2023-04-08T12:34:57.365Z,12.99
2023-04-08T12:37:24.219Z,12.97
2023-04-08T12:39:50.708Z,13.07
2023-04-08T12:42:17.106Z,13.15
2023-04-08T12:44:43.529Z,13.14
2023-04-08T12:47:10.027Z,13.17
2023-04-08T12:49:48.841Z,13.23
2023-04-08T12:52:16.340Z,13.29
2023-04-08T12:54:42.817Z,13.31
2023-04-08T12:57:09.341Z,13.33
2023-04-08T12:59:35.977Z,13.36
2023-04-08T13:02:02.520Z,13.21
2023-04-08T13:04:29.148Z,13.27
2023-04-08T13:06:56.326Z,13.51
2023-04-08T13:09:22.888Z,13.56
2023-04-08T13:11:49.423Z,13.61
2023-04-08T13:14:16.332Z,13.57
2023-04-08T13:16:42.968Z,13.58
2023-04-08T13:19:09.402Z,13.75
2023-04-08T13:21:36.220Z,13.56
2023-04-08T13:24:02.796Z,13.11
2023-04-08T13:26:29.270Z,13.02
2023-04-08T13:29:00.042Z,12.99
2023-04-08T13:31:27.132Z,13.06
2023-04-08T13:33:56.059Z,13.07
2023-04-08T13:36:24.244Z,13.12
2023-04-08T13:38:51.177Z,13.06
2023-04-08T13:41:17.808Z,12.85
2023-04-08T13:43:44.215Z,12.80
2023-04-08T13:46:11.282Z,12.75
2023-04-08T13:48:37.755Z,12.52
2023-04-08T13:51:04.130Z,12.34
2023-04-08T13:53:30.589Z,12.33
2023-04-08T13:55:59.032Z,12.30
2023-04-08T13:58:26.443Z,12.16
2023-04-08T14:00:53.105Z,12.12
2023-04-08T14:03:19.654Z,12.16
2023-04-08T14:05:46.490Z,12.24
2023-04-08T14:08:13.619Z,12.37
2023-04-08T14:10:41.812Z,12.59
2023-04-08T14:13:08.700Z,12.83
2023-04-08T14:15:35.314Z,12.99
2023-04-08T14:18:01.824Z,12.95
2023-04-08T14:20:28.418Z,12.99
2023-04-08T14:22:56.459Z,13.02
2023-04-08T14:25:25.824Z,13.06
2023-04-08T14:27:58.331Z,13.04
2023-04-08T14:30:26.890Z,12.77
2023-04-08T14:32:53.934Z,12.66
2023-04-08T14:35:20.514Z,12.59
2023-04-08T14:37:46.927Z,12.70
2023-04-08T14:40:13.577Z,12.92
2023-04-08T14:42:40.127Z,13.02
2023-04-08T14:45:07.139Z,13.07
2023-04-08T14:47:33.614Z,13.10
2023-04-08T14:50:00.255Z,13.17
2023-04-08T14:52:27.258Z,13.11
2023-04-08T14:54:53.784Z,12.96
2023-04-08T14:57:20.328Z,13.00
2023-04-08T14:59:46.806Z,12.99
2023-04-08T15:02:13.600Z,12.97
2023-04-08T15:04:40.385Z,12.92
2023-04-08T15:07:07.463Z,12.86
2023-04-08T15:09:34.016Z,12.94
2023-04-08T15:12:01.155Z,12.72
2023-04-08T15:14:27.666Z,12.49
2023-04-08T15:16:54.203Z,12.44
2023-04-08T15:19:21.007Z,12.52
2023-04-08T15:21:47.457Z,12.68
2023-04-08T15:24:13.991Z,12.66
2023-04-08T15:26:40.885Z,12.55
2023-04-08T15:29:07.473Z,12.48
2023-04-08T15:31:34.940Z,12.46
2023-04-08T15:34:02.622Z,12.45
2023-04-08T15:36:29.944Z,12.36
2023-04-08T15:38:56.754Z,12.41
2023-04-08T15:41:23.214Z,12.40
2023-04-08T15:43:50.090Z,12.30
2023-04-08T15:46:22.817Z,12.22
2023-04-08T15:48:50.626Z,12.27
2023-04-08T15:51:17.380Z,12.31
2023-04-08T15:53:44.072Z,12.34
2023-04-08T15:56:14.750Z,12.20
2023-04-08T15:58:41.828Z,12.20
2023-04-08T16:01:08.381Z,12.21
2023-04-08T16:03:35.212Z,12.08
2023-04-08T16:06:01.761Z,12.07
2023-04-08T16:08:28.992Z,12.15
2023-04-08T16:11:03.309Z,12.11
2023-04-08T16:13:30.771Z,12.19
2023-04-08T16:15:58.465Z,12.22
2023-04-08T16:18:25.724Z,12.26
2023-04-08T16:20:52.273Z,12.30
2023-04-08T16:23:18.840Z,12.32
2023-04-08T16:25:45.414Z,12.37
2023-04-08T16:28:12.481Z,12.46
2023-04-08T16:30:38.998Z,12.50
2023-04-08T16:33:06.091Z,12.54
2023-04-08T16:35:32.663Z,12.55
2023-04-08T16:37:59.446Z,12.49
2023-04-08T16:40:26.173Z,12.47
2023-04-08T16:42:53.071Z,12.47
2023-04-08T16:45:19.496Z,12.50
2023-04-08T16:47:46.130Z,12.49
2023-04-08T16:50:12.853Z,12.46
2023-04-08T16:52:39.275Z,12.48
2023-04-08T16:55:06.503Z,12.53
2023-04-08T16:57:32.956Z,12.42
2023-04-08T16:59:59.464Z,12.33
2023-04-08T17:02:26.447Z,12.23
2023-04-08T17:04:53.112Z,12.14
2023-04-08T17:07:19.571Z,12.02
2023-04-08T17:09:49.563Z,12.00
2023-04-08T17:12:16.289Z,11.99
2023-04-08T17:14:42.803Z,11.93
2023-04-08T17:17:09.260Z,11.99
2023-04-08T17:19:36.506Z,12.12
2023-04-08T17:22:03.074Z,12.10
2023-04-08T17:24:31.934Z,12.10
2023-04-08T17:26:58.494Z,12.11
2023-04-08T17:29:24.991Z,11.99
2023-04-08T17:31:51.512Z,11.82
2023-04-08T17:34:18.058Z,11.88
2023-04-08T17:36:44.749Z,11.91
2023-04-08T17:39:11.207Z,11.92
2023-04-08T17:41:40.916Z,11.90
2023-04-08T17:44:08.272Z,11.79
2023-04-08T17:46:34.939Z,11.75
2023-04-08T17:49:01.521Z,11.75
2023-04-08T17:51:29.121Z,11.81
2023-04-08T17:53:56.031Z,11.94
2023-04-08T17:56:23.428Z,11.94
2023-04-08T17:58:49.955Z,11.99
2023-04-08T18:01:17.060Z,11.95
2023-04-08T18:03:43.690Z,11.82
2023-04-08T18:06:10.274Z,11.71
2023-04-08T18:08:36.693Z,11.70
2023-04-08T18:11:06.245Z,11.72
2023-04-08T18:13:32.934Z,11.80
2023-04-08T18:15:59.545Z,11.86
2023-04-08T18:18:25.989Z,11.81
2023-04-08T18:20:52.455Z,11.71
2023-04-08T18:23:18.915Z,11.63
2023-04-08T18:25:49.998Z,11.74
2023-04-08T18:28:16.421Z,11.80
2023-04-08T18:30:43.321Z,11.81
2023-04-08T18:33:09.836Z,11.82
2023-04-08T18:35:36.875Z,11.75
2023-04-08T18:38:03.446Z,11.69
2023-04-08T18:40:31.077Z,11.71
2023-04-08T18:43:01.973Z,11.71
2023-04-08T18:45:29.285Z,11.70
2023-04-08T18:47:56.026Z,11.66
2023-04-08T18:50:23.165Z,11.60
2023-04-08T18:52:49.691Z,11.56
2023-04-08T18:55:16.259Z,11.59
2023-04-08T18:57:42.691Z,11.62
2023-04-08T19:00:09.480Z,11.59
2023-04-08T19:02:36.019Z,11.52
2023-04-08T19:05:02.506Z,11.55
2023-04-08T19:07:29.095Z,11.56
2023-04-08T19:09:58.562Z,11.61
2023-04-08T19:12:26.107Z,11.66
2023-04-08T19:14:53.672Z,11.59
2023-04-08T19:17:20.509Z,11.56
2023-04-08T19:19:47.060Z,11.49
2023-04-08T19:22:13.587Z,11.46
2023-04-08T19:24:40.113Z,11.49
2023-04-08T19:27:06.532Z,11.51
2023-04-08T19:29:33.884Z,11.50
2023-04-08T19:32:00.346Z,11.49
2023-04-08T19:34:26.958Z,11.49
2023-04-08T19:36:53.467Z,11.48
2023-04-08T19:39:19.923Z,11.39
2023-04-08T19:41:46.707Z,11.28
2023-04-08T19:44:13.516Z,11.26
2023-04-08T19:46:40.067Z,11.22
2023-04-08T19:49:06.749Z,11.21
2023-04-08T19:51:33.270Z,11.21
2023-04-08T19:54:02.180Z,11.21
2023-04-08T19:56:33.675Z,11.14
2023-04-08T19:59:01.896Z,11.05
2023-04-08T20:01:29.330Z,10.98
2023-04-08T20:03:55.983Z,11.00
2023-04-08T20:06:23.079Z,10.96
2023-04-08T20:08:52.070Z,10.99
2023-04-08T20:11:19.622Z,11.00
2023-04-08T20:13:47.099Z,10.93
2023-04-08T20:16:13.640Z,10.85
2023-04-08T20:18:40.236Z,10.85
2023-04-08T20:21:08.179Z,10.77
2023-04-08T20:23:40.434Z,10.78
2023-04-08T20:26:07.208Z,10.81
2023-04-08T20:28:33.600Z,10.81
2023-04-08T20:31:00.048Z,10.67
2023-04-08T20:33:27.043Z,10.56
2023-04-08T20:35:57.442Z,10.49
2023-04-08T20:38:24.866Z,10.57
2023-04-08T20:40:51.301Z,10.58
2023-04-08T20:43:17.964Z,10.57
2023-04-08T20:45:44.498Z,10.68
2023-04-08T20:48:10.959Z,10.72
2023-04-08T20:50:37.384Z,10.66
2023-04-08T20:53:03.921Z,10.63
2023-04-08T20:55:30.286Z,10.50
2023-04-08T20:57:56.671Z,10.48
2023-04-08T21:00:23.200Z,10.55
2023-04-08T21:02:50.847Z,10.52
2023-04-08T21:05:17.467Z,10.49
2023-04-08T21:07:44.602Z,10.50
2023-04-08T21:10:12.790Z,10.51
2023-04-08T21:12:39.323Z,10.45
2023-04-08T21:15:06.121Z,10.44
2023-04-08T21:17:32.668Z,10.49
2023-04-08T21:19:59.154Z,10.48
2023-04-08T21:22:25.645Z,10.45
2023-04-08T21:24:52.117Z,10.40
2023-04-08T21:27:18.625Z,10.44
2023-04-08T21:29:45.172Z,10.41
2023-04-08T21:32:11.920Z,10.39
2023-04-08T21:34:38.485Z,10.29
2023-04-08T21:37:05.742Z,10.27
2023-04-08T21:39:32.170Z,10.24
2023-04-08T21:41:58.655Z,10.22
2023-04-08T21:44:25.200Z,10.24
2023-04-08T21:46:51.758Z,10.29
2023-04-08T21:49:18.228Z,10.27
2023-04-08T21:51:44.653Z,10.38
2023-04-08T21:54:12.437Z,10.44
2023-04-08T21:56:38.880Z,10.45
2023-04-08T21:59:05.268Z,10.39
2023-04-08T22:01:32.700Z,10.30
2023-04-08T22:03:59.573Z,10.25
2023-04-08T22:06:32.004Z,10.17
2023-04-08T22:08:58.879Z,10.08
2023-04-08T22:11:25.343Z,10.13
2023-04-08T22:13:51.816Z,10.09
2023-04-08T22:16:18.328Z,10.05
2023-04-08T22:18:44.886Z,10.02
2023-04-08T22:21:11.336Z,9.98
2023-04-08T22:23:37.847Z,10.02
2023-04-08T22:26:04.778Z,10.06
2023-04-08T22:28:32.487Z,10.14
2023-04-08T22:30:58.991Z,10.17
2023-04-08T22:33:25.569Z,10.19
2023-04-08T22:35:52.047Z,10.17
2023-04-08T22:38:18.657Z,10.21
2023-04-08T22:40:45.201Z,10.28
2023-04-08T22:43:11.963Z,10.32
2023-04-08T22:45:38.403Z,10.32
2023-04-08T22:48:05.008Z,10.23
2023-04-08T22:50:31.451Z,10.22
2023-04-08T22:52:57.823Z,10.26
2023-04-08T22:55:24.228Z,10.24
2023-04-08T22:57:51.101Z,10.22
2023-04-08T23:00:17.597Z,10.28
2023-04-08T23:02:44.050Z,10.34
2023-04-08T23:05:11.034Z,10.37
2023-04-08T23:07:37.534Z,10.35
2023-04-08T23:10:04.374Z,10.23
2023-04-08T23:12:31.062Z,10.09
2023-04-08T23:14:57.553Z,10.13
2023-04-08T23:17:24.074Z,10.13
2023-04-08T23:19:50.575Z,10.10
2023-04-08T23:22:17.113Z,10.05
2023-04-08T23:24:43.561Z,10.02
2023-04-08T23:27:10.032Z,10.06
2023-04-08T23:29:36.440Z,10.11
2023-04-08T23:32:02.843Z,10.10
2023-04-08T23:34:29.254Z,10.07
2023-04-08T23:36:55.669Z,10.11
2023-04-08T23:39:22.187Z,10.14
2023-04-08T23:41:48.623Z,10.20
2023-04-08T23:44:14.998Z,10.14
2023-04-08T23:46:41.438Z,10.16
2023-04-08T23:49:07.891Z,10.20
2023-04-08T23:51:36.149Z,10.24
2023-04-08T23:54:02.540Z,10.22
2023-04-08T23:56:29.032Z,10.22
2023-04-08T23:58:55.569Z,10.26
